Weather at Oakland Troy Airport

Public forecast

Using degrees Fahrenheit for public forecast. Weather courtesy of forecast.io.

Current aviation weather report (METAR) for Oakland Troy Airport

Retrieved 2021/12/08 08:15 UTC (17 minutes ago):

KVLL 080815Z AUTO 20004KT 10SM SCT037 BKN042 OVC050 M04/M11 A3006 RMK AO2 T10451108

Closest aviation forecast (TAF) to Oakland Troy Airport

Closest forecast is Coleman A. Young Municipal Airport, 10.9 nm (20.3 km) SE. Retrieved 2021/12/08 06:22 UTC (2 hours ago):

TAF KDET 080520Z 0806/0906 20004KT P6SM BKN080 FM080800 21003KT P6SM SCT030 OVC060 TEMPO 0808/0811 6SM -SN BKN045 FM081300 23005KT P6SM SCT030 BKN060 BKN150 FM081800 27009KT P6SM SCT030 BKN050 FM090300 29005KT P6SM SCT050